5VA4 weather

Reston Hospital Center Heliport
Herndon, Virginia, United States

Public forecast

Using degrees Fahrenheit for public forecast. Weather courtesy of forecast.io.

Closest aviation weather report (METAR) to Reston Hospital Center Heliport

Closest report is Washington Dulles International Airport, 4.5 nm (8.3 km) WSW. Retrieved 2020/05/29 18:52 UTC (26 minutes ago):

KIAD 291852Z COR 20017G21KT 10SM SCT035 BKN120 BKN250 29/20 A2992 RMK AO2 LTG DSNT NW SLP129 T02940200

Closest aviation forecast (TAF) to Reston Hospital Center Heliport

Closest forecast is Washington Dulles International Airport, 4.5 nm (8.3 km) WSW. Retrieved 2020/05/29 18:33 UTC (45 minutes ago):

TAF KIAD 291730Z 2918/3024 20012G20KT P6SM SCT040 BKN130 FM292100 21012G20KT P6SM VCTS SCT040CB BKN130 FM300100 24008KT P6SM SCT040 BKN130 FM300800 33008G16KT P6SM SCT100 FM301800 33008KT P6SM SKC